• Join FlightAware (Why Join?)
  • Login
  • US Flag 
Rudolph Flight #1: Arrived! 
12:40PM EST


 

Airport Tracker/Info


-or-


 

Live Flight TrackerFlight Track Log ✈ UAL927 ✈ 09-Apr-2012 ✈ KSFO - KLAX

Flight Track Log - Related Links

Times and Time Zones

All times are in EDT time to prevent confusion due to time zone crossing. See the UAL927 flight status page for this flight to view local times or setup timezone preferences in your user account.

Time Position Orientation Groundspeed Altitude Reporting Facility
EDT Latitude Longitude Course Direction KTS MPH feet Rate Location/Type
02:09AM 37.6024 -122.3524 300° West  Level FlightAware Approximate
02:10AM 37.5235 -122.2735 311° West  Level FlightAware Approximate
02:11AM 37.6575 -122.4714 239° Southwest 199 229 4,000  Level Oakland Center
02:12AM 37.6275 -122.5339 146° Southeast 177 204 7,600 3,540 Climbing Oakland Center
02:13AM 37.5675 -122.4828 134° Southeast 135 155 11,100 2,820 Climbing Oakland Center
02:14AM 37.5058 -122.4031 132° Southeast 230 265 13,300 2,700 Climbing Oakland Center
02:15AM 37.4422 -122.3153 133° Southeast 299 344 16,600 3,120 Climbing Oakland Center
02:16AM 37.3767 -122.2256 134° Southeast 319 367 19,600 2,760 Climbing Oakland Center
02:17AM 37.3086 -122.1356 132° Southeast 341 392 22,200 2,460 Climbing Oakland Center
02:18AM 37.2386 -122.0378 134° Southeast 358 412 24,600 2,280 Climbing Oakland Center
02:19AM 37.1664 -121.9431 134° Southeast 364 419 26,800 1,920 Climbing Oakland Center
02:20AM 37.0922 -121.8458 133° Southeast 375 432 28,500 1,620 Climbing Oakland Center
02:21AM 37.0156 -121.7433 134° Southeast 393 452 30,100 1,800 Climbing Oakland Center
02:22AM 36.9369 -121.6414 133° Southeast 399 459 32,200 1,440 Climbing Oakland Center
02:23AM 36.8583 -121.5367 133° Southeast 399 459 33,000 360 Climbing Oakland Center
02:24AM 36.7858 -121.4403 133° Southeast 399 459 33,000  Level Oakland Center
02:25AM 36.7067 -121.3361 134° Southeast 399 459 33,000 -60 Level Oakland Center
02:26AM 36.6278 -121.2350 133° Southeast 404 465 32,900 -60 Descending Oakland Center
02:27AM 36.5467 -121.1286 134° Southeast 410 472 32,900  Level Oakland Center
02:28AM 36.4653 -121.0225 134° Southeast 410 472 32,900  Level Oakland Center
02:29AM 36.3861 -120.9194 134° Southeast 410 472 33,000  Climbing Oakland Center
02:30AM 36.3025 -120.8139 134° Southeast 410 472 33,000  Level Oakland Center
02:31AM 36.2211 -120.7083 134° Southeast 410 472 33,000  Level Oakland Center
02:32AM 36.1414 -120.6058 133° Southeast 410 472 33,000  Level Oakland Center
02:33AM 36.0303 -120.4586 135° Southeast 407 468 33,000  Level Los Angeles Center
02:34AM 35.9483 -120.3567 135° Southeast 407 468 33,000 -60 Level Los Angeles Center
02:35AM 35.8644 -120.2525 133° Southeast 418 481 32,900  Descending Los Angeles Center
02:36AM 35.7844 -120.1486 133° Southeast 423 487 33,000  Climbing Los Angeles Center
02:37AM 35.7125 -120.0553 138° Southeast 423 487 33,000  Level Los Angeles Center
02:38AM 35.6236 -119.9567 144° Southeast 423 487 33,000 -60 Level Los Angeles Center
02:39AM 35.5283 -119.8731 145° Southeast 423 487 32,900  Descending Los Angeles Center
02:40AM 35.4328 -119.7894 146° Southeast 423 487 33,000  Climbing Los Angeles Center
02:41AM 35.3369 -119.7114 145° Southeast 417 480 33,000  Level Los Angeles Center
02:42AM 35.2414 -119.6283 145° Southeast 417 480 33,000 -240 Level Los Angeles Center
02:43AM 35.1436 -119.5456 144° Southeast 417 480 32,600 -1,800 Descending Los Angeles Center
02:44AM 35.0478 -119.4603 146° Southeast 424 488 29,500 -2,880 Descending Los Angeles Center
02:45AM 34.9539 -119.3831 145° Southeast 423 487 26,900 -2,280 Descending Los Angeles Center
02:46AM 34.8642 -119.3061 146° Southeast 409 471 25,000 -2,100 Descending Los Angeles Center
02:47AM 34.7764 -119.2344 144° Southeast 397 457 22,700 -2,280 Descending Los Angeles Center
02:48AM 34.6925 -119.1606 148° Southeast 385 443 20,500 -2,280 Descending Los Angeles Center
02:49AM 34.5983 -119.0889 145° Southeast 374 430 18,200 -2,280 Descending Los Angeles Center
02:50AM 34.5206 -119.0231 146° Southeast 361 415 16,000 -2,160 Descending Los Angeles Center
02:51AM 34.4428 -118.9600 144° Southeast 356 410 13,900 -2,100 Descending Los Angeles Center
02:52AM 34.3692 -118.8944 170° South 344 396 11,900 -1,500 Descending Los Angeles Center
02:53AM 34.2861 -118.8767 172° South 308 354 10,900 -840 Descending Los Angeles Center
02:54AM 34.2133 -118.8642 172° South 293 337 10,300 -900 Descending Los Angeles Center
02:55AM 34.1550 -118.8547 173° South 265 305 9,200 -1,200 Descending Los Angeles Center
02:56AM 34.0947 -118.8453 161° South 241 277 7,900 -1,200 Descending Los Angeles Center
02:57AM 34.0369 -118.8208 139° Southeast 228 262 6,800 -1,320 Descending Los Angeles Center
02:58AM 33.9881 -118.7692 132° Southeast 220 253 5,300 -1,260 Descending Los Angeles Center
02:59AM 33.9475 -118.7153 103° East 220 253 4,300 -960 Descending Los Angeles Center
03:00AM 33.9342 -118.6450 91° East 199 229 3,400 -900 Descending Los Angeles Center
03:01AM 33.9333 -118.5822 83° East 187 215 2,500 -840 Descending Los Angeles Center
03:02AM 33.9386 -118.5300 81° East 168 193 1,800 -720 Descending Los Angeles Center
03:03AM 33.9436 -118.4900 86° East 145 167 1,100 -600 Descending Los Angeles Center
03:04AM 33.9467 -118.4425 86° East 133 153 600 -540 Descending Los Angeles Center